sensor_id;sensor_type;location;lat;lon;timestamp;P1;durP1;ratioP1;P2;durP2;ratioP2
24147;SDS011;12309;51.450;-2.624;2023-05-02T00:02:11;4.70;;;2.50;;
24147;SDS011;12309;51.450;-2.624;2023-05-02T00:04:36;3.88;;;2.53;;
24147;SDS011;12309;51.450;-2.624;2023-05-02T00:07:02;4.87;;;2.80;;
24147;SDS011;12309;51.450;-2.624;2023-05-02T00:09:28;5.73;;;2.40;;
24147;SDS011;12309;51.450;-2.624;2023-05-02T00:11:54;3.83;;;2.40;;
24147;SDS011;12309;51.450;-2.624;2023-05-02T00:14:19;6.50;;;2.73;;
24147;SDS011;12309;51.450;-2.624;2023-05-02T00:16:45;6.63;;;2.47;;
24147;SDS011;12309;51.450;-2.624;2023-05-02T00:19:11;6.77;;;2.60;;
24147;SDS011;12309;51.450;-2.624;2023-05-02T00:21:36;3.97;;;3.10;;
24147;SDS011;12309;51.450;-2.624;2023-05-02T00:24:02;5.45;;;2.40;;
24147;SDS011;12309;51.450;-2.624;2023-05-02T00:26:28;6.80;;;2.80;;
24147;SDS011;12309;51.450;-2.624;2023-05-02T00:28:53;4.67;;;2.40;;
24147;SDS011;12309;51.450;-2.624;2023-05-02T00:31:19;4.33;;;2.80;;
24147;SDS011;12309;51.450;-2.624;2023-05-02T00:33:45;4.77;;;2.60;;
24147;SDS011;12309;51.450;-2.624;2023-05-02T00:36:14;5.40;;;2.50;;
24147;SDS011;12309;51.450;-2.624;2023-05-02T00:38:40;4.50;;;2.90;;
24147;SDS011;12309;51.450;-2.624;2023-05-02T00:41:05;3.40;;;2.27;;
24147;SDS011;12309;51.450;-2.624;2023-05-02T00:43:31;6.70;;;2.80;;
24147;SDS011;12309;51.450;-2.624;2023-05-02T00:45:57;5.72;;;2.95;;
24147;SDS011;12309;51.450;-2.624;2023-05-02T00:48:23;6.57;;;2.90;;
24147;SDS011;12309;51.450;-2.624;2023-05-02T00:50:50;4.73;;;3.10;;
24147;SDS011;12309;51.450;-2.624;2023-05-02T00:53:15;8.63;;;3.70;;
24147;SDS011;12309;51.450;-2.624;2023-05-02T00:55:41;5.77;;;3.10;;
24147;SDS011;12309;51.450;-2.624;2023-05-02T00:58:11;6.63;;;3.60;;
24147;SDS011;12309;51.450;-2.624;2023-05-02T01:03:11;5.57;;;3.30;;
24147;SDS011;12309;51.450;-2.624;2023-05-02T01:08:39;4.23;;;3.07;;
24147;SDS011;12309;51.450;-2.624;2023-05-02T01:11:22;4.47;;;2.90;;
24147;SDS011;12309;51.450;-2.624;2023-05-02T01:13:55;4.87;;;2.87;;
24147;SDS011;12309;51.450;-2.624;2023-05-02T01:16:25;5.57;;;3.47;;
24147;SDS011;12309;51.450;-2.624;2023-05-02T01:18:52;5.23;;;3.33;;
24147;SDS011;12309;51.450;-2.624;2023-05-02T01:21:19;4.37;;;3.10;;
24147;SDS011;12309;51.450;-2.624;2023-05-02T01:23:56;6.20;;;3.70;;
24147;SDS011;12309;51.450;-2.624;2023-05-02T01:26:34;10.33;;;3.60;;
24147;SDS011;12309;51.450;-2.624;2023-05-02T01:29:10;5.30;;;3.30;;
24147;SDS011;12309;51.450;-2.624;2023-05-02T01:31:43;5.13;;;3.30;;
24147;SDS011;12309;51.450;-2.624;2023-05-02T01:34:12;5.20;;;3.63;;
24147;SDS011;12309;51.450;-2.624;2023-05-02T01:36:40;7.03;;;4.10;;
24147;SDS011;12309;51.450;-2.624;2023-05-02T01:39:08;7.13;;;3.40;;
24147;SDS011;12309;51.450;-2.624;2023-05-02T01:41:39;6.77;;;3.67;;
24147;SDS011;12309;51.450;-2.624;2023-05-02T01:44:06;5.53;;;3.60;;
24147;SDS011;12309;51.450;-2.624;2023-05-02T01:46:35;6.87;;;3.47;;
24147;SDS011;12309;51.450;-2.624;2023-05-02T01:49:04;5.77;;;3.83;;
24147;SDS011;12309;51.450;-2.624;2023-05-02T01:51:32;9.33;;;4.10;;
24147;SDS011;12309;51.450;-2.624;2023-05-02T01:54:04;7.40;;;3.67;;
24147;SDS011;12309;51.450;-2.624;2023-05-02T01:56:33;4.77;;;3.53;;
24147;SDS011;12309;51.450;-2.624;2023-05-02T01:59:01;6.33;;;4.10;;
24147;SDS011;12309;51.450;-2.624;2023-05-02T02:01:30;7.80;;;4.13;;
24147;SDS011;12309;51.450;-2.624;2023-05-02T02:03:57;7.10;;;4.50;;
24147;SDS011;12309;51.450;-2.624;2023-05-02T02:06:24;6.20;;;4.50;;
24147;SDS011;12309;51.450;-2.624;2023-05-02T02:08:51;6.07;;;4.07;;
24147;SDS011;12309;51.450;-2.624;2023-05-02T02:11:25;7.83;;;3.77;;
24147;SDS011;12309;51.450;-2.624;2023-05-02T02:14:02;6.33;;;3.93;;
24147;SDS011;12309;51.450;-2.624;2023-05-02T02:16:36;7.80;;;4.20;;
24147;SDS011;12309;51.450;-2.624;2023-05-02T02:19:06;10.57;;;3.90;;
24147;SDS011;12309;51.450;-2.624;2023-05-02T02:21:34;10.27;;;4.20;;
24147;SDS011;12309;51.450;-2.624;2023-05-02T02:24:02;7.30;;;4.67;;
24147;SDS011;12309;51.450;-2.624;2023-05-02T02:26:30;8.33;;;4.50;;
24147;SDS011;12309;51.450;-2.624;2023-05-02T02:28:56;5.90;;;4.30;;
24147;SDS011;12309;51.450;-2.624;2023-05-02T02:31:22;8.50;;;4.70;;
24147;SDS011;12309;51.450;-2.624;2023-05-02T02:33:49;7.10;;;4.10;;
24147;SDS011;12309;51.450;-2.624;2023-05-02T02:42:24;9.17;;;4.07;;
24147;SDS011;12309;51.450;-2.624;2023-05-02T02:47:49;8.00;;;3.93;;
24147;SDS011;12309;51.450;-2.624;2023-05-02T02:50:37;6.83;;;5.00;;
24147;SDS011;12309;51.450;-2.624;2023-05-02T02:53:19;7.30;;;4.03;;
24147;SDS011;12309;51.450;-2.624;2023-05-02T02:55:56;6.80;;;4.00;;
24147;SDS011;12309;51.450;-2.624;2023-05-02T03:00:59;8.07;;;4.50;;
24147;SDS011;12309;51.450;-2.624;2023-05-02T03:03:28;9.23;;;5.13;;
24147;SDS011;12309;51.450;-2.624;2023-05-02T03:05:56;7.73;;;4.73;;
24147;SDS011;12309;51.450;-2.624;2023-05-02T03:08:22;8.00;;;4.03;;
24147;SDS011;12309;51.450;-2.624;2023-05-02T03:10:48;9.83;;;4.40;;
24147;SDS011;12309;51.450;-2.624;2023-05-02T03:13:14;11.80;;;4.60;;
24147;SDS011;12309;51.450;-2.624;2023-05-02T03:18:18;6.97;;;4.67;;
24147;SDS011;12309;51.450;-2.624;2023-05-02T03:20:43;6.17;;;4.70;;
24147;SDS011;12309;51.450;-2.624;2023-05-02T03:23:09;7.47;;;4.63;;
24147;SDS011;12309;51.450;-2.624;2023-05-02T03:25:35;7.60;;;4.83;;
24147;SDS011;12309;51.450;-2.624;2023-05-02T03:28:01;9.57;;;4.83;;
24147;SDS011;12309;51.450;-2.624;2023-05-02T03:30:27;6.50;;;4.87;;
24147;SDS011;12309;51.450;-2.624;2023-05-02T03:32:52;7.50;;;4.73;;
24147;SDS011;12309;51.450;-2.624;2023-05-02T03:35:18;8.97;;;4.77;;
24147;SDS011;12309;51.450;-2.624;2023-05-02T03:37:44;6.73;;;4.67;;
24147;SDS011;12309;51.450;-2.624;2023-05-02T03:40:09;8.17;;;5.10;;
24147;SDS011;12309;51.450;-2.624;2023-05-02T03:42:35;8.03;;;4.73;;
24147;SDS011;12309;51.450;-2.624;2023-05-02T03:45:04;9.27;;;4.93;;
24147;SDS011;12309;51.450;-2.624;2023-05-02T03:47:34;12.37;;;4.87;;
24147;SDS011;12309;51.450;-2.624;2023-05-02T03:49:59;11.07;;;5.10;;
24147;SDS011;12309;51.450;-2.624;2023-05-02T03:52:27;6.73;;;4.80;;
24147;SDS011;12309;51.450;-2.624;2023-05-02T03:54:52;7.03;;;4.80;;
24147;SDS011;12309;51.450;-2.624;2023-05-02T03:57:18;7.70;;;4.70;;
24147;SDS011;12309;51.450;-2.624;2023-05-02T03:59:44;7.10;;;5.07;;
24147;SDS011;12309;51.450;-2.624;2023-05-02T04:02:12;7.70;;;4.53;;
24147;SDS011;12309;51.450;-2.624;2023-05-02T04:04:39;10.10;;;5.10;;
24147;SDS011;12309;51.450;-2.624;2023-05-02T04:07:07;8.33;;;4.83;;
24147;SDS011;12309;51.450;-2.624;2023-05-02T04:09:33;6.23;;;4.83;;
24147;SDS011;12309;51.450;-2.624;2023-05-02T04:11:59;7.50;;;4.63;;
24147;SDS011;12309;51.450;-2.624;2023-05-02T04:14:25;8.63;;;5.10;;
24147;SDS011;12309;51.450;-2.624;2023-05-02T04:16:51;8.90;;;5.87;;
24147;SDS011;12309;51.450;-2.624;2023-05-02T04:19:17;10.70;;;5.53;;
24147;SDS011;12309;51.450;-2.624;2023-05-02T04:21:43;11.07;;;6.00;;
24147;SDS011;12309;51.450;-2.624;2023-05-02T04:24:09;10.47;;;6.63;;
24147;SDS011;12309;51.450;-2.624;2023-05-02T04:26:35;9.90;;;5.83;;
24147;SDS011;12309;51.450;-2.624;2023-05-02T04:29:01;10.27;;;6.90;;
24147;SDS011;12309;51.450;-2.624;2023-05-02T04:31:28;12.20;;;7.27;;
24147;SDS011;12309;51.450;-2.624;2023-05-02T04:33:55;12.43;;;7.47;;
24147;SDS011;12309;51.450;-2.624;2023-05-02T04:36:20;14.40;;;8.50;;
24147;SDS011;12309;51.450;-2.624;2023-05-02T04:38:46;11.00;;;8.20;;
24147;SDS011;12309;51.450;-2.624;2023-05-02T04:41:13;12.07;;;8.10;;
24147;SDS011;12309;51.450;-2.624;2023-05-02T04:43:39;11.83;;;7.90;;
24147;SDS011;12309;51.450;-2.624;2023-05-02T04:46:05;13.60;;;8.63;;
24147;SDS011;12309;51.450;-2.624;2023-05-02T04:48:31;11.53;;;8.53;;
24147;SDS011;12309;51.450;-2.624;2023-05-02T04:50:57;11.57;;;8.20;;
24147;SDS011;12309;51.450;-2.624;2023-05-02T04:53:23;14.27;;;8.87;;
24147;SDS011;12309;51.450;-2.624;2023-05-02T04:55:48;12.30;;;8.20;;
24147;SDS011;12309;51.450;-2.624;2023-05-02T04:58:14;12.57;;;8.23;;
24147;SDS011;12309;51.450;-2.624;2023-05-02T05:00:40;14.17;;;8.47;;
24147;SDS011;12309;51.450;-2.624;2023-05-02T05:03:05;11.93;;;8.53;;
24147;SDS011;12309;51.450;-2.624;2023-05-02T05:05:31;12.57;;;8.40;;
24147;SDS011;12309;51.450;-2.624;2023-05-02T05:07:57;12.97;;;9.03;;
24147;SDS011;12309;51.450;-2.624;2023-05-02T05:10:23;16.63;;;9.30;;
24147;SDS011;12309;51.450;-2.624;2023-05-02T05:12:49;13.83;;;8.90;;
24147;SDS011;12309;51.450;-2.624;2023-05-02T05:15:15;13.47;;;9.00;;
24147;SDS011;12309;51.450;-2.624;2023-05-02T05:17:41;11.87;;;8.30;;
24147;SDS011;12309;51.450;-2.624;2023-05-02T05:20:06;13.03;;;9.30;;
24147;SDS011;12309;51.450;-2.624;2023-05-02T05:22:38;13.00;;;9.50;;
24147;SDS011;12309;51.450;-2.624;2023-05-02T05:25:05;14.33;;;9.67;;
24147;SDS011;12309;51.450;-2.624;2023-05-02T05:27:32;15.73;;;9.40;;
24147;SDS011;12309;51.450;-2.624;2023-05-02T05:29:58;16.57;;;9.87;;
24147;SDS011;12309;51.450;-2.624;2023-05-02T05:32:24;16.67;;;9.87;;
24147;SDS011;12309;51.450;-2.624;2023-05-02T05:34:53;14.53;;;9.83;;
24147;SDS011;12309;51.450;-2.624;2023-05-02T05:37:19;13.73;;;10.00;;
24147;SDS011;12309;51.450;-2.624;2023-05-02T05:39:45;14.17;;;10.40;;
24147;SDS011;12309;51.450;-2.624;2023-05-02T05:42:11;15.60;;;10.00;;
24147;SDS011;12309;51.450;-2.624;2023-05-02T05:44:37;15.43;;;9.97;;
24147;SDS011;12309;51.450;-2.624;2023-05-02T05:47:03;14.40;;;10.20;;
24147;SDS011;12309;51.450;-2.624;2023-05-02T05:49:29;16.53;;;10.27;;
24147;SDS011;12309;51.450;-2.624;2023-05-02T05:51:55;13.83;;;9.70;;
24147;SDS011;12309;51.450;-2.624;2023-05-02T05:54:21;15.10;;;9.93;;
24147;SDS011;12309;51.450;-2.624;2023-05-02T05:56:47;15.37;;;10.77;;
24147;SDS011;12309;51.450;-2.624;2023-05-02T05:59:12;16.63;;;10.87;;
24147;SDS011;12309;51.450;-2.624;2023-05-02T06:01:38;14.87;;;10.17;;
24147;SDS011;12309;51.450;-2.624;2023-05-02T06:04:04;13.97;;;9.97;;
24147;SDS011;12309;51.450;-2.624;2023-05-02T06:06:31;13.47;;;9.80;;
24147;SDS011;12309;51.450;-2.624;2023-05-02T06:08:57;15.17;;;10.17;;
24147;SDS011;12309;51.450;-2.624;2023-05-02T06:11:23;15.60;;;10.30;;
24147;SDS011;12309;51.450;-2.624;2023-05-02T06:13:50;15.03;;;10.20;;
24147;SDS011;12309;51.450;-2.624;2023-05-02T06:16:16;20.03;;;10.33;;
24147;SDS011;12309;51.450;-2.624;2023-05-02T06:18:42;15.20;;;9.57;;
24147;SDS011;12309;51.450;-2.624;2023-05-02T06:21:08;15.53;;;10.63;;
24147;SDS011;12309;51.450;-2.624;2023-05-02T06:23:34;13.97;;;10.00;;
24147;SDS011;12309;51.450;-2.624;2023-05-02T06:26:00;12.33;;;9.47;;
24147;SDS011;12309;51.450;-2.624;2023-05-02T06:28:27;14.73;;;9.90;;
24147;SDS011;12309;51.450;-2.624;2023-05-02T06:33:26;14.60;;;9.60;;
24147;SDS011;12309;51.450;-2.624;2023-05-02T06:35:55;13.30;;;10.20;;
24147;SDS011;12309;51.450;-2.624;2023-05-02T06:38:21;13.87;;;9.60;;
24147;SDS011;12309;51.450;-2.624;2023-05-02T06:40:47;13.87;;;9.63;;
24147;SDS011;12309;51.450;-2.624;2023-05-02T06:43:13;14.83;;;10.10;;
24147;SDS011;12309;51.450;-2.624;2023-05-02T06:45:39;14.03;;;9.93;;
24147;SDS011;12309;51.450;-2.624;2023-05-02T06:48:06;15.77;;;11.17;;
24147;SDS011;12309;51.450;-2.624;2023-05-02T06:50:32;15.40;;;10.60;;
24147;SDS011;12309;51.450;-2.624;2023-05-02T06:52:58;19.13;;;10.47;;
24147;SDS011;12309;51.450;-2.624;2023-05-02T06:55:23;14.97;;;10.97;;
24147;SDS011;12309;51.450;-2.624;2023-05-02T06:57:49;15.67;;;10.73;;
24147;SDS011;12309;51.450;-2.624;2023-05-02T07:00:16;18.40;;;11.20;;
24147;SDS011;12309;51.450;-2.624;2023-05-02T07:02:46;13.50;;;9.97;;
24147;SDS011;12309;51.450;-2.624;2023-05-02T07:05:13;14.40;;;10.57;;
24147;SDS011;12309;51.450;-2.624;2023-05-02T07:07:43;14.80;;;10.67;;
24147;SDS011;12309;51.450;-2.624;2023-05-02T07:10:09;15.17;;;10.97;;
24147;SDS011;12309;51.450;-2.624;2023-05-02T07:12:35;18.03;;;11.27;;
24147;SDS011;12309;51.450;-2.624;2023-05-02T07:15:02;16.50;;;11.40;;
24147;SDS011;12309;51.450;-2.624;2023-05-02T07:17:29;13.70;;;10.23;;
24147;SDS011;12309;51.450;-2.624;2023-05-02T07:19:54;15.50;;;11.07;;
24147;SDS011;12309;51.450;-2.624;2023-05-02T07:22:20;13.13;;;10.20;;
24147;SDS011;12309;51.450;-2.624;2023-05-02T07:24:46;17.87;;;10.17;;
24147;SDS011;12309;51.450;-2.624;2023-05-02T07:27:11;17.73;;;9.73;;
24147;SDS011;12309;51.450;-2.624;2023-05-02T07:29:37;16.63;;;9.93;;
24147;SDS011;12309;51.450;-2.624;2023-05-02T07:32:04;12.47;;;9.30;;
24147;SDS011;12309;51.450;-2.624;2023-05-02T07:34:30;14.47;;;9.00;;
24147;SDS011;12309;51.450;-2.624;2023-05-02T07:36:56;12.17;;;9.00;;
24147;SDS011;12309;51.450;-2.624;2023-05-02T07:39:23;17.37;;;8.53;;
24147;SDS011;12309;51.450;-2.624;2023-05-02T07:41:52;12.43;;;9.00;;
24147;SDS011;12309;51.450;-2.624;2023-05-02T07:44:18;16.00;;;8.80;;
24147;SDS011;12309;51.450;-2.624;2023-05-02T07:46:45;14.17;;;9.33;;
24147;SDS011;12309;51.450;-2.624;2023-05-02T07:49:11;13.07;;;8.80;;
24147;SDS011;12309;51.450;-2.624;2023-05-02T07:51:37;14.70;;;9.13;;
24147;SDS011;12309;51.450;-2.624;2023-05-02T07:54:13;12.30;;;8.13;;
24147;SDS011;12309;51.450;-2.624;2023-05-02T07:56:42;14.95;;;8.45;;
24147;SDS011;12309;51.450;-2.624;2023-05-02T07:59:07;11.43;;;7.77;;
24147;SDS011;12309;51.450;-2.624;2023-05-02T08:01:33;10.43;;;6.77;;
24147;SDS011;12309;51.450;-2.624;2023-05-02T08:03:59;12.43;;;6.93;;
24147;SDS011;12309;51.450;-2.624;2023-05-02T08:06:25;11.50;;;7.20;;
24147;SDS011;12309;51.450;-2.624;2023-05-02T08:08:50;12.70;;;6.73;;
24147;SDS011;12309;51.450;-2.624;2023-05-02T08:11:16;9.95;;;7.03;;
24147;SDS011;12309;51.450;-2.624;2023-05-02T08:13:42;11.68;;;7.30;;
24147;SDS011;12309;51.450;-2.624;2023-05-02T08:16:07;12.33;;;7.47;;
24147;SDS011;12309;51.450;-2.624;2023-05-02T08:18:33;15.52;;;7.97;;
24147;SDS011;12309;51.450;-2.624;2023-05-02T08:20:58;13.13;;;7.65;;
24147;SDS011;12309;51.450;-2.624;2023-05-02T08:23:24;12.82;;;7.28;;
24147;SDS011;12309;51.450;-2.624;2023-05-02T08:25:49;13.77;;;7.70;;
24147;SDS011;12309;51.450;-2.624;2023-05-02T08:28:15;11.80;;;8.05;;
24147;SDS011;12309;51.450;-2.624;2023-05-02T08:30:41;12.55;;;7.63;;
24147;SDS011;12309;51.450;-2.624;2023-05-02T08:33:09;14.00;;;8.18;;
24147;SDS011;12309;51.450;-2.624;2023-05-02T08:35:34;12.57;;;9.05;;
24147;SDS011;12309;51.450;-2.624;2023-05-02T08:38:00;16.73;;;8.77;;
24147;SDS011;12309;51.450;-2.624;2023-05-02T08:40:26;15.02;;;9.18;;
24147;SDS011;12309;51.450;-2.624;2023-05-02T08:42:51;15.68;;;9.50;;
24147;SDS011;12309;51.450;-2.624;2023-05-02T08:45:19;16.38;;;8.95;;
24147;SDS011;12309;51.450;-2.624;2023-05-02T08:47:47;16.40;;;9.87;;
24147;SDS011;12309;51.450;-2.624;2023-05-02T08:50:14;16.00;;;9.80;;
24147;SDS011;12309;51.450;-2.624;2023-05-02T08:52:41;17.53;;;10.77;;
24147;SDS011;12309;51.450;-2.624;2023-05-02T08:55:09;17.43;;;10.73;;
24147;SDS011;12309;51.450;-2.624;2023-05-02T08:57:36;16.00;;;10.83;;
24147;SDS011;12309;51.450;-2.624;2023-05-02T09:00:03;16.47;;;10.43;;
24147;SDS011;12309;51.450;-2.624;2023-05-02T09:02:50;20.77;;;12.10;;
24147;SDS011;12309;51.450;-2.624;2023-05-02T09:05:56;17.23;;;11.87;;
24147;SDS011;12309;51.450;-2.624;2023-05-02T09:08:29;19.70;;;12.95;;
24147;SDS011;12309;51.450;-2.624;2023-05-02T09:10:54;20.15;;;13.65;;
24147;SDS011;12309;51.450;-2.624;2023-05-02T09:13:27;19.13;;;11.88;;
24147;SDS011;12309;51.450;-2.624;2023-05-02T09:15:57;20.70;;;12.38;;
24147;SDS011;12309;51.450;-2.624;2023-05-02T09:18:34;20.55;;;12.13;;
24147;SDS011;12309;51.450;-2.624;2023-05-02T09:21:05;18.75;;;12.30;;
24147;SDS011;12309;51.450;-2.624;2023-05-02T09:23:36;18.75;;;12.30;;
24147;SDS011;12309;51.450;-2.624;2023-05-02T09:26:28;20.75;;;12.65;;
24147;SDS011;12309;51.450;-2.624;2023-05-02T09:28:56;17.13;;;11.95;;
24147;SDS011;12309;51.450;-2.624;2023-05-02T09:31:27;19.80;;;11.90;;
24147;SDS011;12309;51.450;-2.624;2023-05-02T09:33:57;17.58;;;12.25;;
24147;SDS011;12309;51.450;-2.624;2023-05-02T09:36:45;18.40;;;12.68;;
24147;SDS011;12309;51.450;-2.624;2023-05-02T09:39:15;21.27;;;12.60;;
24147;SDS011;12309;51.450;-2.624;2023-05-02T09:41:42;17.95;;;12.70;;
24147;SDS011;12309;51.450;-2.624;2023-05-02T09:44:10;20.38;;;12.35;;
24147;SDS011;12309;51.450;-2.624;2023-05-02T09:46:40;20.52;;;12.82;;
24147;SDS011;12309;51.450;-2.624;2023-05-02T09:49:06;17.67;;;12.48;;
24147;SDS011;12309;51.450;-2.624;2023-05-02T09:51:35;19.30;;;12.00;;
24147;SDS011;12309;51.450;-2.624;2023-05-02T09:54:01;18.70;;;13.18;;
24147;SDS011;12309;51.450;-2.624;2023-05-02T09:56:27;20.65;;;13.23;;
24147;SDS011;12309;51.450;-2.624;2023-05-02T09:59:10;19.92;;;12.32;;
24147;SDS011;12309;51.450;-2.624;2023-05-02T10:01:38;19.50;;;13.35;;
24147;SDS011;12309;51.450;-2.624;2023-05-02T10:04:06;20.88;;;12.77;;
24147;SDS011;12309;51.450;-2.624;2023-05-02T10:06:42;17.05;;;12.25;;
24147;SDS011;12309;51.450;-2.624;2023-05-02T10:09:09;16.75;;;11.85;;
24147;SDS011;12309;51.450;-2.624;2023-05-02T10:11:39;16.42;;;11.23;;
24147;SDS011;12309;51.450;-2.624;2023-05-02T10:14:08;13.50;;;10.02;;
24147;SDS011;12309;51.450;-2.624;2023-05-02T10:16:35;15.40;;;10.00;;
24147;SDS011;12309;51.450;-2.624;2023-05-02T10:19:08;14.60;;;9.00;;
24147;SDS011;12309;51.450;-2.624;2023-05-02T10:21:36;12.60;;;8.50;;
24147;SDS011;12309;51.450;-2.624;2023-05-02T10:24:07;12.98;;;8.18;;
24147;SDS011;12309;51.450;-2.624;2023-05-02T10:26:33;12.20;;;8.20;;
24147;SDS011;12309;51.450;-2.624;2023-05-02T10:29:00;12.30;;;8.20;;
24147;SDS011;12309;51.450;-2.624;2023-05-02T10:31:26;9.95;;;7.50;;
24147;SDS011;12309;51.450;-2.624;2023-05-02T10:33:57;13.02;;;8.02;;
24147;SDS011;12309;51.450;-2.624;2023-05-02T10:36:25;12.02;;;7.88;;
24147;SDS011;12309;51.450;-2.624;2023-05-02T10:38:52;14.02;;;7.53;;
24147;SDS011;12309;51.450;-2.624;2023-05-02T10:41:24;10.60;;;7.75;;
24147;SDS011;12309;51.450;-2.624;2023-05-02T10:43:53;10.68;;;7.30;;
24147;SDS011;12309;51.450;-2.624;2023-05-02T10:46:31;9.80;;;7.20;;
24147;SDS011;12309;51.450;-2.624;2023-05-02T10:48:59;11.38;;;6.80;;
24147;SDS011;12309;51.450;-2.624;2023-05-02T10:51:29;13.82;;;7.50;;
24147;SDS011;12309;51.450;-2.624;2023-05-02T11:02:03;14.02;;;8.35;;
24147;SDS011;12309;51.450;-2.624;2023-05-02T11:07:24;11.05;;;7.43;;
24147;SDS011;12309;51.450;-2.624;2023-05-02T11:09:50;19.58;;;7.30;;
24147;SDS011;12309;51.450;-2.624;2023-05-02T11:15:13;9.10;;;6.93;;
24147;SDS011;12309;51.450;-2.624;2023-05-02T11:20:25;11.25;;;6.63;;
24147;SDS011;12309;51.450;-2.624;2023-05-02T11:22:51;10.40;;;6.85;;
24147;SDS011;12309;51.450;-2.624;2023-05-02T11:25:27;12.82;;;6.57;;
24147;SDS011;12309;51.450;-2.624;2023-05-02T11:27:53;10.18;;;7.10;;
24147;SDS011;12309;51.450;-2.624;2023-05-02T11:30:35;11.38;;;6.72;;
24147;SDS011;12309;51.450;-2.624;2023-05-02T11:35:31;9.90;;;6.88;;
24147;SDS011;12309;51.450;-2.624;2023-05-02T11:38:03;10.20;;;6.80;;
24147;SDS011;12309;51.450;-2.624;2023-05-02T11:40:38;11.77;;;6.72;;
24147;SDS011;12309;51.450;-2.624;2023-05-02T11:43:11;9.15;;;6.70;;
24147;SDS011;12309;51.450;-2.624;2023-05-02T11:45:38;7.85;;;5.90;;
24147;SDS011;12309;51.450;-2.624;2023-05-02T11:48:05;11.07;;;6.20;;
24147;SDS011;12309;51.450;-2.624;2023-05-02T11:50:41;11.10;;;6.13;;
24147;SDS011;12309;51.450;-2.624;2023-05-02T11:53:15;7.97;;;5.63;;
24147;SDS011;12309;51.450;-2.624;2023-05-02T11:55:48;7.60;;;5.30;;
24147;SDS011;12309;51.450;-2.624;2023-05-02T11:58:19;9.88;;;5.88;;
24147;SDS011;12309;51.450;-2.624;2023-05-02T12:00:50;9.48;;;5.85;;
24147;SDS011;12309;51.450;-2.624;2023-05-02T12:05:51;7.25;;;5.68;;
24147;SDS011;12309;51.450;-2.624;2023-05-02T12:08:25;7.72;;;5.28;;
24147;SDS011;12309;51.450;-2.624;2023-05-02T12:10:52;8.95;;;5.90;;
24147;SDS011;12309;51.450;-2.624;2023-05-02T12:13:20;10.30;;;5.43;;
24147;SDS011;12309;51.450;-2.624;2023-05-02T12:15:47;6.85;;;4.97;;
24147;SDS011;12309;51.450;-2.624;2023-05-02T12:18:14;10.20;;;5.18;;
24147;SDS011;12309;51.450;-2.624;2023-05-02T12:20:40;8.63;;;5.20;;
24147;SDS011;12309;51.450;-2.624;2023-05-02T12:23:07;8.63;;;5.35;;
24147;SDS011;12309;51.450;-2.624;2023-05-02T12:25:37;7.35;;;5.03;;
24147;SDS011;12309;51.450;-2.624;2023-05-02T12:28:04;10.32;;;6.22;;
24147;SDS011;12309;51.450;-2.624;2023-05-02T12:30:30;10.77;;;5.70;;
24147;SDS011;12309;51.450;-2.624;2023-05-02T12:32:57;10.93;;;6.03;;
24147;SDS011;12309;51.450;-2.624;2023-05-02T12:35:25;8.18;;;5.82;;
24147;SDS011;12309;51.450;-2.624;2023-05-02T12:37:52;6.72;;;4.85;;
24147;SDS011;12309;51.450;-2.624;2023-05-02T12:40:20;8.60;;;5.05;;
24147;SDS011;12309;51.450;-2.624;2023-05-02T12:43:03;9.63;;;5.30;;
24147;SDS011;12309;51.450;-2.624;2023-05-02T12:45:31;9.68;;;5.28;;
24147;SDS011;12309;51.450;-2.624;2023-05-02T12:48:01;7.75;;;4.88;;
24147;SDS011;12309;51.450;-2.624;2023-05-02T12:50:41;7.50;;;5.05;;
24147;SDS011;12309;51.450;-2.624;2023-05-02T12:53:07;9.32;;;4.72;;
24147;SDS011;12309;51.450;-2.624;2023-05-02T12:55:33;7.30;;;4.38;;
24147;SDS011;12309;51.450;-2.624;2023-05-02T12:58:05;5.57;;;4.28;;
24147;SDS011;12309;51.450;-2.624;2023-05-02T13:00:34;9.27;;;4.75;;
24147;SDS011;12309;51.450;-2.624;2023-05-02T13:03:01;9.48;;;4.63;;
24147;SDS011;12309;51.450;-2.624;2023-05-02T13:05:27;8.02;;;4.30;;
24147;SDS011;12309;51.450;-2.624;2023-05-02T13:07:52;9.55;;;4.65;;
24147;SDS011;12309;51.450;-2.624;2023-05-02T13:10:20;6.85;;;4.78;;
24147;SDS011;12309;51.450;-2.624;2023-05-02T13:12:46;8.52;;;4.50;;
24147;SDS011;12309;51.450;-2.624;2023-05-02T13:15:13;7.35;;;4.47;;
24147;SDS011;12309;51.450;-2.624;2023-05-02T13:17:39;7.38;;;4.68;;
24147;SDS011;12309;51.450;-2.624;2023-05-02T13:20:05;11.27;;;4.03;;
24147;SDS011;12309;51.450;-2.624;2023-05-02T13:22:33;6.72;;;4.68;;
24147;SDS011;12309;51.450;-2.624;2023-05-02T13:24:58;14.82;;;5.68;;
24147;SDS011;12309;51.450;-2.624;2023-05-02T13:27:24;9.05;;;4.40;;
24147;SDS011;12309;51.450;-2.624;2023-05-02T13:29:50;7.07;;;4.38;;
24147;SDS011;12309;51.450;-2.624;2023-05-02T13:32:16;6.50;;;4.40;;
24147;SDS011;12309;51.450;-2.624;2023-05-02T13:34:42;6.50;;;4.05;;
24147;SDS011;12309;51.450;-2.624;2023-05-02T13:37:08;6.43;;;4.40;;
24147;SDS011;12309;51.450;-2.624;2023-05-02T13:39:34;7.90;;;4.57;;
24147;SDS011;12309;51.450;-2.624;2023-05-02T13:42:00;11.77;;;4.55;;
24147;SDS011;12309;51.450;-2.624;2023-05-02T13:44:31;11.35;;;5.15;;
24147;SDS011;12309;51.450;-2.624;2023-05-02T13:46:57;8.77;;;4.65;;
24147;SDS011;12309;51.450;-2.624;2023-05-02T13:49:22;7.90;;;4.78;;
24147;SDS011;12309;51.450;-2.624;2023-05-02T13:51:48;8.88;;;4.68;;
24147;SDS011;12309;51.450;-2.624;2023-05-02T13:54:14;8.63;;;4.18;;
24147;SDS011;12309;51.450;-2.624;2023-05-02T13:56:41;10.60;;;5.13;;
24147;SDS011;12309;51.450;-2.624;2023-05-02T13:59:07;13.30;;;5.10;;
24147;SDS011;12309;51.450;-2.624;2023-05-02T14:01:33;6.88;;;5.03;;
24147;SDS011;12309;51.450;-2.624;2023-05-02T14:03:59;6.85;;;4.97;;
24147;SDS011;12309;51.450;-2.624;2023-05-02T14:06:30;8.98;;;4.93;;
24147;SDS011;12309;51.450;-2.624;2023-05-02T14:08:56;8.70;;;4.75;;
24147;SDS011;12309;51.450;-2.624;2023-05-02T14:11:22;7.13;;;4.80;;
24147;SDS011;12309;51.450;-2.624;2023-05-02T14:13:47;6.30;;;4.28;;
24147;SDS011;12309;51.450;-2.624;2023-05-02T14:16:13;7.13;;;4.25;;
24147;SDS011;12309;51.450;-2.624;2023-05-02T14:18:38;6.20;;;3.70;;
24147;SDS011;12309;51.450;-2.624;2023-05-02T14:21:04;5.85;;;3.70;;
24147;SDS011;12309;51.450;-2.624;2023-05-02T14:23:30;8.75;;;4.15;;
24147;SDS011;12309;51.450;-2.624;2023-05-02T14:25:55;6.18;;;4.10;;
24147;SDS011;12309;51.450;-2.624;2023-05-02T14:28:21;6.22;;;4.68;;
24147;SDS011;12309;51.450;-2.624;2023-05-02T14:30:47;8.50;;;4.55;;
24147;SDS011;12309;51.450;-2.624;2023-05-02T14:33:13;9.63;;;4.70;;
24147;SDS011;12309;51.450;-2.624;2023-05-02T14:35:39;6.13;;;4.30;;
24147;SDS011;12309;51.450;-2.624;2023-05-02T14:38:05;6.60;;;4.20;;
24147;SDS011;12309;51.450;-2.624;2023-05-02T14:40:30;8.52;;;4.10;;
24147;SDS011;12309;51.450;-2.624;2023-05-02T14:42:57;7.68;;;4.20;;
24147;SDS011;12309;51.450;-2.624;2023-05-02T14:45:22;4.85;;;3.17;;
24147;SDS011;12309;51.450;-2.624;2023-05-02T14:47:48;10.00;;;4.90;;
24147;SDS011;12309;51.450;-2.624;2023-05-02T14:50:14;8.20;;;4.70;;
24147;SDS011;12309;51.450;-2.624;2023-05-02T14:52:40;6.78;;;4.22;;
24147;SDS011;12309;51.450;-2.624;2023-05-02T14:55:06;10.35;;;4.38;;
24147;SDS011;12309;51.450;-2.624;2023-05-02T14:57:32;12.55;;;4.50;;
24147;SDS011;12309;51.450;-2.624;2023-05-02T14:59:58;12.38;;;4.20;;
24147;SDS011;12309;51.450;-2.624;2023-05-02T15:02:24;5.97;;;3.55;;
24147;SDS011;12309;51.450;-2.624;2023-05-02T15:04:50;7.28;;;4.45;;
24147;SDS011;12309;51.450;-2.624;2023-05-02T15:07:16;6.68;;;4.72;;
24147;SDS011;12309;51.450;-2.624;2023-05-02T15:09:42;10.60;;;4.20;;
24147;SDS011;12309;51.450;-2.624;2023-05-02T15:12:07;7.97;;;4.00;;
24147;SDS011;12309;51.450;-2.624;2023-05-02T15:14:33;7.82;;;5.07;;